Time;durP1;ratioP1;P1;durP2;ratioP2;P2;SDS_P1;SDS_P2;PMS_P1;PMS_P2;Temp;Humidity;BMP_temperature;BMP_pressure;BME280_temperature;BME280_humidity;BME280_pressure;Samples;Min_cycle;Max_cycle;Signal;HPM_P1;HPM_P2
2021/09/08 00:02:10;;;;;;;12.38;10.00;;;;;;;;;;5058781;28;20087;-80
2021/09/08 00:04:36;;;;;;;12.52;10.55;;;;;;;;;;5059725;28;20579;-80
2021/09/08 00:07:02;;;;;;;15.65;10.85;;;;;;;;;;5060269;28;20029;-80
2021/09/08 00:09:28;;;;;;;13.30;10.35;;;;;;;;;;5059780;28;20071;-81
2021/09/08 00:11:54;;;;;;;16.02;10.88;;;;;;;;;;5059170;28;20025;-81
2021/09/08 00:14:20;;;;;;;13.73;9.48;;;;;;;;;;5056140;28;20405;-81
2021/09/08 00:16:46;;;;;;;17.75;10.52;;;;;;;;;;5040505;28;20060;-80
2021/09/08 00:19:12;;;;;;;12.85;10.93;;;;;;;;;;5058424;28;20133;-79
2021/09/08 00:21:38;;;;;;;15.30;11.20;;;;;;;;;;5058664;28;20033;-80
2021/09/08 00:24:04;;;;;;;16.95;11.57;;;;;;;;;;5103647;22;20017;-81
2021/09/08 00:26:30;;;;;;;17.25;11.68;;;;;;;;;;5095221;28;20422;-84
2021/09/08 00:28:56;;;;;;;16.98;11.07;;;;;;;;;;5078389;28;20025;-84
2021/09/08 00:31:22;;;;;;;17.92;11.82;;;;;;;;;;5078261;28;20078;-83
2021/09/08 00:33:48;;;;;;;13.60;10.60;;;;;;;;;;5090168;28;20024;-83
2021/09/08 00:36:14;;;;;;;12.40;10.63;;;;;;;;;;5078300;28;20052;-83
2021/09/08 00:38:40;;;;;;;12.45;10.00;;;;;;;;;;5078283;28;20039;-84
2021/09/08 00:41:07;;;;;;;15.23;10.82;;;;;;;;;;5060666;28;20511;-84
2021/09/08 00:43:33;;;;;;;16.40;11.10;;;;;;;;;;5078146;28;20043;-83
2021/09/08 00:45:59;;;;;;;15.23;11.18;;;;;;;;;;5060049;28;20025;-82
2021/09/08 00:48:25;;;;;;;21.42;11.82;;;;;;;;;;5078592;28;20054;-83
2021/09/08 00:50:51;;;;;;;16.10;11.27;;;;;;;;;;5059637;28;20033;-83
2021/09/08 00:53:18;;;;;;;14.27;11.02;;;;;;;;;;5078144;28;20028;-82
2021/09/08 00:55:45;;;;;;;17.42;11.10;;;;;;;;;;5078216;28;20027;-82
2021/09/08 00:58:11;;;;;;;14.02;10.93;;;;;;;;;;5081694;28;20032;-81
2021/09/08 01:00:38;;;;;;;19.33;10.27;;;;;;;;;;5082228;28;20024;-82
2021/09/08 01:03:04;;;;;;;15.85;10.77;;;;;;;;;;5083934;28;20029;-81
2021/09/08 01:05:30;;;;;;;15.35;11.98;;;;;;;;;;5087880;28;20044;-82
2021/09/08 01:07:56;;;;;;;14.02;11.80;;;;;;;;;;5077032;28;20033;-83
2021/09/08 01:10:23;;;;;;;14.85;11.38;;;;;;;;;;5060504;28;20025;-83
2021/09/08 01:12:49;;;;;;;15.45;11.85;;;;;;;;;;5077532;28;20477;-82
2021/09/08 01:15:15;;;;;;;14.00;10.75;;;;;;;;;;5060691;28;20021;-82
2021/09/08 01:17:42;;;;;;;13.77;11.00;;;;;;;;;;5078705;28;20091;-81
2021/09/08 01:20:08;;;;;;;13.80;10.20;;;;;;;;;;5060660;28;20074;-82
2021/09/08 01:22:55;;;;;;;16.35;12.15;;;;;;;;;;5078009;28;20032;-82
2021/09/08 01:25:25;;;;;;;12.70;10.93;;;;;;;;;;5076354;28;20036;-81
2021/09/08 01:27:52;;;;;;;16.70;11.68;;;;;;;;;;5076661;28;20024;-82
2021/09/08 01:30:19;;;;;;;16.13;11.95;;;;;;;;;;5075443;28;20028;-82
2021/09/08 01:32:47;;;;;;;13.25;11.57;;;;;;;;;;5076770;28;20488;-82
2021/09/08 01:35:13;;;;;;;19.30;12.20;;;;;;;;;;5076064;28;20024;-82
2021/09/08 01:37:39;;;;;;;13.45;11.35;;;;;;;;;;5059967;28;20597;-82
2021/09/08 01:40:05;;;;;;;17.10;11.13;;;;;;;;;;5057441;28;20497;-81
2021/09/08 01:42:31;;;;;;;14.70;11.77;;;;;;;;;;5058254;28;20563;-82
2021/09/08 01:44:57;;;;;;;15.63;11.20;;;;;;;;;;5038969;28;20029;-82
2021/09/08 01:47:23;;;;;;;13.93;11.38;;;;;;;;;;5056168;28;20021;-82
2021/09/08 01:49:49;;;;;;;18.55;12.25;;;;;;;;;;5054157;28;20389;-81
2021/09/08 01:52:16;;;;;;;16.85;12.15;;;;;;;;;;5038782;28;20021;-82
2021/09/08 01:54:42;;;;;;;16.73;12.70;;;;;;;;;;5055981;28;20057;-82
2021/09/08 01:57:08;;;;;;;14.70;13.05;;;;;;;;;;5056346;28;20066;-82
2021/09/08 01:59:34;;;;;;;17.80;11.93;;;;;;;;;;5057738;28;20394;-82
2021/09/08 02:02:00;;;;;;;15.95;11.73;;;;;;;;;;5040063;28;20040;-82
2021/09/08 02:04:26;;;;;;;15.93;13.05;;;;;;;;;;5039058;28;20036;-82
2021/09/08 02:06:52;;;;;;;14.57;12.27;;;;;;;;;;5055076;28;20041;-82
2021/09/08 02:09:19;;;;;;;18.17;13.13;;;;;;;;;;5056462;28;20468;-82
2021/09/08 02:11:45;;;;;;;15.80;11.98;;;;;;;;;;5056889;28;20078;-82
2021/09/08 02:14:11;;;;;;;16.17;12.45;;;;;;;;;;5056732;28;20052;-83
2021/09/08 02:16:37;;;;;;;14.52;12.15;;;;;;;;;;5056317;28;20025;-82
2021/09/08 02:19:03;;;;;;;16.98;12.80;;;;;;;;;;5053611;28;20083;-83
2021/09/08 02:21:30;;;;;;;19.83;13.25;;;;;;;;;;5054741;28;20032;-82
2021/09/08 02:23:56;;;;;;;18.08;12.75;;;;;;;;;;5061469;28;20028;-82
2021/09/08 02:26:22;;;;;;;18.58;12.13;;;;;;;;;;5074281;28;20056;-83
2021/09/08 02:28:48;;;;;;;14.82;12.30;;;;;;;;;;5057378;28;20033;-83
2021/09/08 02:31:14;;;;;;;18.05;12.55;;;;;;;;;;5075355;28;20033;-82
2021/09/08 02:33:41;;;;;;;18.52;12.75;;;;;;;;;;5074303;28;20476;-82
2021/09/08 02:36:07;;;;;;;17.73;13.05;;;;;;;;;;5075108;28;20017;-82
2021/09/08 02:38:34;;;;;;;18.13;13.20;;;;;;;;;;5068760;28;20021;-82
2021/09/08 02:41:00;;;;;;;17.52;12.52;;;;;;;;;;5053493;28;20025;-82
2021/09/08 02:43:29;;;;;;;17.45;13.05;;;;;;;;;;5053966;28;20029;-83
2021/09/08 02:45:55;;;;;;;15.02;11.93;;;;;;;;;;5053555;28;20546;-82
2021/09/08 02:48:21;;;;;;;19.48;13.52;;;;;;;;;;5055220;28;20087;-82
2021/09/08 02:50:47;;;;;;;16.35;12.40;;;;;;;;;;5054501;28;20029;-82
2021/09/08 02:53:13;;;;;;;17.67;12.75;;;;;;;;;;5037455;28;20037;-82
2021/09/08 02:55:39;;;;;;;16.35;12.40;;;;;;;;;;5055154;28;20029;-82
2021/09/08 02:58:06;;;;;;;18.00;13.23;;;;;;;;;;5054771;28;20402;-82
2021/09/08 03:00:32;;;;;;;15.02;13.15;;;;;;;;;;5055186;28;20025;-82
2021/09/08 03:02:58;;;;;;;18.65;13.32;;;;;;;;;;5038182;28;20028;-82
2021/09/08 03:05:24;;;;;;;16.77;13.05;;;;;;;;;;5054781;28;20064;-82
2021/09/08 03:07:50;;;;;;;21.15;13.98;;;;;;;;;;5054707;28;20516;-82
2021/09/08 03:10:16;;;;;;;18.92;13.10;;;;;;;;;;5038350;28;20088;-82
2021/09/08 03:12:42;;;;;;;17.30;12.75;;;;;;;;;;5055115;28;20037;-82
2021/09/08 03:15:08;;;;;;;16.52;13.10;;;;;;;;;;5055702;28;20013;-82
2021/09/08 03:17:34;;;;;;;18.80;13.10;;;;;;;;;;5039775;28;20061;-82
2021/09/08 03:20:01;;;;;;;18.33;13.18;;;;;;;;;;5056065;28;20066;-82
2021/09/08 03:22:27;;;;;;;19.73;13.52;;;;;;;;;;5063447;28;20025;-82
2021/09/08 03:24:53;;;;;;;14.93;12.65;;;;;;;;;;5069529;28;20063;-81
2021/09/08 03:27:19;;;;;;;18.50;13.48;;;;;;;;;;5068992;28;20037;-82
2021/09/08 03:29:45;;;;;;;17.42;13.45;;;;;;;;;;5067899;28;20116;-81
2021/09/08 03:32:11;;;;;;;17.23;14.10;;;;;;;;;;5064837;28;20037;-81
2021/09/08 03:34:37;;;;;;;16.90;13.70;;;;;;;;;;5038604;28;20021;-82
2021/09/08 03:37:03;;;;;;;15.40;13.05;;;;;;;;;;5037852;28;20068;-82
2021/09/08 03:39:29;;;;;;;18.95;12.90;;;;;;;;;;5055273;28;20033;-82
2021/09/08 03:41:55;;;;;;;23.67;13.82;;;;;;;;;;5075091;28;20074;-82
2021/09/08 03:44:22;;;;;;;18.65;12.75;;;;;;;;;;5076007;28;20509;-83
2021/09/08 03:46:48;;;;;;;18.00;14.00;;;;;;;;;;5077326;28;20469;-83
2021/09/08 03:49:14;;;;;;;17.95;13.75;;;;;;;;;;5073586;28;20020;-82
2021/09/08 03:51:40;;;;;;;17.88;13.00;;;;;;;;;;5075647;28;20089;-82
2021/09/08 03:54:06;;;;;;;16.38;12.45;;;;;;;;;;5075653;28;20024;-82
2021/09/08 03:56:32;;;;;;;17.98;13.05;;;;;;;;;;5076662;28;20035;-81
2021/09/08 03:58:58;;;;;;;17.00;13.27;;;;;;;;;;5074599;28;20025;-81
2021/09/08 04:01:24;;;;;;;17.33;13.35;;;;;;;;;;5074207;28;20397;-82
2021/09/08 04:03:50;;;;;;;19.38;13.35;;;;;;;;;;5073901;28;20031;-81
2021/09/08 04:06:17;;;;;;;15.88;12.38;;;;;;;;;;5073501;28;20028;-82
2021/09/08 04:08:43;;;;;;;16.80;13.00;;;;;;;;;;5073845;28;20082;-82
2021/09/08 04:11:09;;;;;;;18.10;12.98;;;;;;;;;;5073791;28;20035;-82
2021/09/08 04:13:38;;;;;;;16.80;13.50;;;;;;;;;;5073757;28;20103;-81
2021/09/08 04:16:05;;;;;;;17.45;12.85;;;;;;;;;;5075254;28;20025;-81
2021/09/08 04:18:31;;;;;;;21.35;13.80;;;;;;;;;;5074421;28;20096;-82
2021/09/08 04:20:57;;;;;;;17.65;12.75;;;;;;;;;;5075095;28;20039;-82
2021/09/08 04:23:23;;;;;;;17.50;14.00;;;;;;;;;;5074694;28;20405;-81
2021/09/08 04:25:49;;;;;;;16.65;13.13;;;;;;;;;;5057020;28;20044;-81
2021/09/08 04:28:14;;;;;;;18.48;14.50;;;;;;;;;;5073597;28;20028;-81
2021/09/08 04:30:40;;;;;;;18.13;12.98;;;;;;;;;;5074678;28;20385;-82
2021/09/08 04:33:07;;;;;;;18.42;13.02;;;;;;;;;;5073961;28;20024;-81
2021/09/08 04:35:33;;;;;;;16.73;13.88;;;;;;;;;;5073515;28;20025;-81
2021/09/08 04:37:59;;;;;;;17.50;13.63;;;;;;;;;;5073180;28;20024;-81
2021/09/08 04:40:25;;;;;;;21.85;13.50;;;;;;;;;;5055836;28;20485;-82
2021/09/08 04:42:51;;;;;;;19.08;14.25;;;;;;;;;;5077235;28;20036;-82
2021/09/08 04:45:17;;;;;;;17.23;13.30;;;;;;;;;;5076536;28;20032;-82
2021/09/08 04:47:43;;;;;;;21.60;14.20;;;;;;;;;;5077027;28;20036;-82
2021/09/08 04:50:09;;;;;;;18.83;13.05;;;;;;;;;;5077301;28;20025;-82
2021/09/08 04:52:35;;;;;;;19.90;13.88;;;;;;;;;;5076489;28;20016;-81
2021/09/08 04:55:01;;;;;;;19.58;14.38;;;;;;;;;;5059997;28;20020;-81
2021/09/08 04:57:28;;;;;;;18.13;14.77;;;;;;;;;;5077851;28;20027;-82
2021/09/08 04:59:54;;;;;;;18.27;14.25;;;;;;;;;;5076549;28;20024;-82
2021/09/08 05:02:19;;;;;;;18.75;13.70;;;;;;;;;;5077236;28;20369;-82
2021/09/08 05:04:45;;;;;;;20.10;15.05;;;;;;;;;;5076598;28;20029;-82
2021/09/08 05:07:12;;;;;;;19.23;14.40;;;;;;;;;;5077950;28;20040;-82
2021/09/08 05:09:37;;;;;;;17.98;14.60;;;;;;;;;;5062171;28;20033;-82
2021/09/08 05:12:04;;;;;;;20.30;13.57;;;;;;;;;;5057852;28;20553;-82
2021/09/08 05:14:30;;;;;;;19.13;14.75;;;;;;;;;;5040493;28;20021;-82
2021/09/08 05:16:56;;;;;;;23.17;14.32;;;;;;;;;;5072941;28;20021;-82
2021/09/08 05:19:22;;;;;;;22.17;15.35;;;;;;;;;;5056679;28;20048;-81
2021/09/08 05:21:48;;;;;;;19.67;14.27;;;;;;;;;;5072362;28;20027;-82
2021/09/08 05:24:14;;;;;;;18.55;15.13;;;;;;;;;;5057460;28;20036;-81
2021/09/08 05:26:40;;;;;;;17.98;14.55;;;;;;;;;;5057642;28;20021;-82
2021/09/08 05:29:06;;;;;;;18.70;14.48;;;;;;;;;;5071788;28;20073;-82
2021/09/08 05:31:33;;;;;;;17.92;14.23;;;;;;;;;;5058859;28;20033;-82
2021/09/08 05:33:59;;;;;;;18.05;13.40;;;;;;;;;;5062856;28;20021;-82
2021/09/08 05:36:25;;;;;;;19.33;14.68;;;;;;;;;;5039726;28;20049;-82
2021/09/08 05:38:51;;;;;;;18.77;14.25;;;;;;;;;;5048074;28;20029;-82
2021/09/08 05:41:17;;;;;;;16.92;13.77;;;;;;;;;;5076516;28;20382;-82
2021/09/08 05:43:43;;;;;;;18.73;13.48;;;;;;;;;;5077119;28;20025;-82
2021/09/08 05:46:09;;;;;;;17.25;13.25;;;;;;;;;;5058441;28;20388;-82
2021/09/08 05:48:35;;;;;;;19.35;13.90;;;;;;;;;;5069913;28;20033;-83
2021/09/08 05:51:01;;;;;;;16.95;13.40;;;;;;;;;;5042786;28;20082;-82
2021/09/08 05:53:28;;;;;;;18.67;13.75;;;;;;;;;;5076659;28;20024;-81
2021/09/08 05:55:55;;;;;;;17.98;12.85;;;;;;;;;;5061222;28;20035;-82
2021/09/08 05:58:21;;;;;;;20.08;13.93;;;;;;;;;;5044113;28;20031;-81
2021/09/08 06:00:47;;;;;;;16.83;12.93;;;;;;;;;;5066557;28;20545;-82
2021/09/08 06:03:13;;;;;;;18.42;13.60;;;;;;;;;;5052186;28;20033;-82
2021/09/08 06:05:39;;;;;;;23.25;13.52;;;;;;;;;;5074671;28;20082;-82
2021/09/08 06:08:05;;;;;;;18.88;12.98;;;;;;;;;;5083908;28;20502;-82
2021/09/08 06:10:31;;;;;;;18.48;13.93;;;;;;;;;;5085835;28;20052;-83
2021/09/08 06:12:57;;;;;;;20.13;14.40;;;;;;;;;;5076237;28;20084;-82
2021/09/08 06:15:24;;;;;;;20.38;14.43;;;;;;;;;;5066598;28;20112;-83
2021/09/08 06:17:50;;;;;;;16.20;12.57;;;;;;;;;;5073750;28;20032;-82
2021/09/08 06:20:16;;;;;;;16.58;13.30;;;;;;;;;;5074325;28;20033;-83
2021/09/08 06:22:42;;;;;;;17.98;13.00;;;;;;;;;;5073666;28;20110;-81
2021/09/08 06:25:08;;;;;;;17.05;13.32;;;;;;;;;;5073396;28;20039;-82
2021/09/08 06:27:35;;;;;;;18.23;13.02;;;;;;;;;;5073359;28;20032;-81
2021/09/08 06:30:01;;;;;;;17.15;12.05;;;;;;;;;;5073913;28;20072;-82
2021/09/08 06:32:27;;;;;;;16.52;12.75;;;;;;;;;;5057057;28;20027;-83
2021/09/08 06:34:53;;;;;;;20.10;13.30;;;;;;;;;;5069406;22;20080;-84
2021/09/08 06:37:20;;;;;;;19.10;13.65;;;;;;;;;;5100836;28;20052;-85
2021/09/08 06:39:46;;;;;;;16.83;12.93;;;;;;;;;;5084076;28;20112;-84
2021/09/08 06:42:12;;;;;;;15.32;12.90;;;;;;;;;;5080278;28;20024;-86
2021/09/08 06:44:38;;;;;;;19.08;12.48;;;;;;;;;;5076918;28;20032;-87
2021/09/08 06:47:04;;;;;;;15.93;12.32;;;;;;;;;;5075343;28;20039;-86
2021/09/08 06:49:30;;;;;;;17.42;12.52;;;;;;;;;;5091604;28;20020;-85
2021/09/08 06:51:56;;;;;;;16.40;11.80;;;;;;;;;;5109229;28;20016;-86
2021/09/08 06:54:22;;;;;;;19.80;12.85;;;;;;;;;;5105954;28;20024;-85
2021/09/08 06:56:48;;;;;;;15.30;12.57;;;;;;;;;;5105260;28;20042;-85
2021/09/08 06:59:14;;;;;;;16.10;12.50;;;;;;;;;;5104302;28;20456;-87
2021/09/08 07:01:40;;;;;;;17.58;12.93;;;;;;;;;;5070639;28;20032;-88
2021/09/08 07:04:06;;;;;;;15.75;11.18;;;;;;;;;;5070345;28;20040;-83
2021/09/08 07:06:32;;;;;;;15.13;11.98;;;;;;;;;;5042791;28;20044;-83
2021/09/08 07:08:58;;;;;;;14.65;11.32;;;;;;;;;;5067169;28;20147;-84
2021/09/08 07:11:24;;;;;;;18.63;11.77;;;;;;;;;;5041598;28;20053;-84
2021/09/08 07:13:50;;;;;;;16.98;11.23;;;;;;;;;;5066795;28;20044;-85
2021/09/08 07:16:16;;;;;;;17.77;11.63;;;;;;;;;;5060096;28;20028;-83
2021/09/08 07:18:42;;;;;;;14.15;11.02;;;;;;;;;;5078759;28;20028;-84
2021/09/08 07:21:08;;;;;;;16.48;11.50;;;;;;;;;;5058267;28;20119;-83
2021/09/08 07:23:34;;;;;;;14.65;11.23;;;;;;;;;;5058795;28;20449;-83
2021/09/08 07:26:00;;;;;;;14.65;11.85;;;;;;;;;;5077405;28;20081;-84
2021/09/08 07:28:26;;;;;;;15.43;11.65;;;;;;;;;;5076807;28;20047;-84
2021/09/08 07:30:55;;;;;;;14.85;11.43;;;;;;;;;;5059866;28;20039;-83
2021/09/08 07:33:21;;;;;;;13.27;10.70;;;;;;;;;;5038724;28;20031;-82
2021/09/08 07:35:48;;;;;;;16.67;10.07;;;;;;;;;;5086868;28;20085;-83
2021/09/08 07:38:22;;;;;;;15.02;10.80;;;;;;;;;;5096137;28;20023;-82
2021/09/08 07:40:48;;;;;;;12.38;9.70;;;;;;;;;;5078212;28;20020;-81
2021/09/08 07:43:14;;;;;;;12.57;9.98;;;;;;;;;;5089174;28;20028;-82
2021/09/08 07:45:40;;;;;;;15.10;10.73;;;;;;;;;;5075770;28;20056;-82
2021/09/08 07:48:06;;;;;;;15.60;10.18;;;;;;;;;;5058417;28;20035;-83
2021/09/08 07:50:33;;;;;;;12.63;9.48;;;;;;;;;;5075435;28;20036;-82
2021/09/08 07:52:59;;;;;;;12.85;9.73;;;;;;;;;;5076224;28;20362;-82
2021/09/08 07:55:25;;;;;;;14.85;9.52;;;;;;;;;;5058018;28;20048;-82
2021/09/08 07:57:51;;;;;;;13.65;8.65;;;;;;;;;;5075731;28;20028;-82
2021/09/08 08:00:17;;;;;;;14.40;8.70;;;;;;;;;;5074996;28;20037;-81
2021/09/08 08:02:47;;;;;;;11.15;9.02;;;;;;;;;;5076670;28;20488;-82
2021/09/08 08:05:14;;;;;;;11.57;8.75;;;;;;;;;;5076967;28;20035;-81
2021/09/08 08:07:41;;;;;;;12.75;8.52;;;;;;;;;;5077675;28;20021;-83
2021/09/08 08:10:07;;;;;;;13.38;8.25;;;;;;;;;;5059125;28;20028;-82
2021/09/08 08:12:33;;;;;;;12.52;8.52;;;;;;;;;;5076784;28;20067;-81
2021/09/08 08:14:59;;;;;;;10.20;8.38;;;;;;;;;;5076445;28;20028;-82
2021/09/08 08:17:25;;;;;;;8.85;7.55;;;;;;;;;;5079430;28;20413;-82
2021/09/08 08:19:51;;;;;;;10.40;8.48;;;;;;;;;;5044290;28;20083;-82
2021/09/08 08:22:17;;;;;;;12.07;8.25;;;;;;;;;;5042655;28;20087;-83
2021/09/08 08:24:43;;;;;;;10.75;8.20;;;;;;;;;;5059318;28;20060;-82
2021/09/08 08:27:10;;;;;;;10.18;8.82;;;;;;;;;;5042573;28;20025;-82
2021/09/08 08:29:36;;;;;;;13.57;8.50;;;;;;;;;;5061619;28;20029;-83
2021/09/08 08:32:02;;;;;;;13.82;8.35;;;;;;;;;;5066241;28;20021;-81
2021/09/08 08:34:28;;;;;;;10.65;7.88;;;;;;;;;;5090069;28;20035;-82
2021/09/08 08:36:54;;;;;;;10.07;8.02;;;;;;;;;;5073472;28;20040;-81
2021/09/08 08:39:20;;;;;;;8.73;7.22;;;;;;;;;;5063181;28;20020;-82
2021/09/08 08:41:46;;;;;;;10.57;6.85;;;;;;;;;;5062939;28;20119;-82
2021/09/08 08:44:12;;;;;;;14.95;6.90;;;;;;;;;;5063384;28;20032;-81
2021/09/08 08:46:39;;;;;;;10.85;6.57;;;;;;;;;;5080057;28;20051;-83
2021/09/08 08:49:05;;;;;;;9.77;6.93;;;;;;;;;;5078374;28;20210;-84
2021/09/08 08:51:31;;;;;;;9.55;7.15;;;;;;;;;;5078261;28;20032;-82
2021/09/08 08:53:57;;;;;;;11.20;6.60;;;;;;;;;;5078782;28;20392;-83
2021/09/08 08:56:24;;;;;;;13.50;5.82;;;;;;;;;;5078973;28;20033;-84
2021/09/08 08:58:50;;;;;;;7.50;5.75;;;;;;;;;;5061293;28;20018;-83
2021/09/08 09:01:21;;;;;;;7.25;5.82;;;;;;;;;;5077407;28;20052;-84
2021/09/08 09:03:59;;;;;;;11.82;6.63;;;;;;;;;;5082393;28;20365;-81
2021/09/08 09:06:25;;;;;;;6.97;5.65;;;;;;;;;;5079292;28;20043;-82
2021/09/08 09:09:01;;;;;;;9.13;5.55;;;;;;;;;;5070057;28;20025;-83
2021/09/08 09:11:27;;;;;;;9.95;5.95;;;;;;;;;;5059085;28;20057;-82
2021/09/08 09:13:53;;;;;;;8.15;5.43;;;;;;;;;;5060995;28;20029;-80
2021/09/08 09:16:23;;;;;;;7.50;5.75;;;;;;;;;;5058346;28;20024;-84
2021/09/08 09:18:49;;;;;;;7.60;5.45;;;;;;;;;;5060729;28;20050;-83
2021/09/08 09:21:16;;;;;;;7.03;5.40;;;;;;;;;;5081770;28;20036;-82
2021/09/08 09:24:08;;;;;;;9.13;5.50;;;;;;;;;;5076707;28;20029;-85
2021/09/08 09:26:37;;;;;;;10.40;5.35;;;;;;;;;;5072103;28;20043;-85
2021/09/08 09:29:08;;;;;;;10.88;5.40;;;;;;;;;;5076488;28;20066;-84
2021/09/08 09:31:35;;;;;;;10.13;4.88;;;;;;;;;;5050049;28;20032;-86
2021/09/08 09:34:01;;;;;;;8.05;5.15;;;;;;;;;;5059092;28;20090;-85
2021/09/08 09:36:31;;;;;;;6.57;4.70;;;;;;;;;;5058490;28;20476;-85
2021/09/08 09:38:58;;;;;;;7.10;5.47;;;;;;;;;;5061551;28;20476;-85
2021/09/08 09:41:26;;;;;;;10.25;4.72;;;17.00;99.90;;;;;;5040585;28;20477;-86
2021/09/08 09:43:53;;;;;;;10.18;5.95;;;29.10;70.60;;;;;;5057327;28;20033;-86
2021/09/08 09:46:19;;;;;;;10.95;6.03;;;28.70;68.50;;;;;;5049334;28;20029;-87
2021/09/08 09:48:45;;;;;;;7.35;5.75;;;28.80;68.60;;;;;;5057267;28;20032;-85
2021/09/08 09:51:12;;;;;;;5.60;4.55;;;;;;;;;;5040297;28;20112;-86
2021/09/08 09:53:39;;;;;;;8.40;4.80;;;;;;;;;;5039448;28;20397;-86
2021/09/08 09:56:05;;;;;;;7.20;4.75;;;;;;;;;;5068387;28;20055;-86
2021/09/08 09:58:31;;;;;;;7.45;4.95;;;29.10;66.40;;;;;;5037395;28;20029;-87
2021/09/08 10:00:57;;;;;;;7.22;4.93;;;30.80;61.50;;;;;;5057704;28;20543;-85
2021/09/08 10:03:23;;;;;;;8.30;4.90;;;;;;;;;;5037462;28;20060;-86
2021/09/08 10:05:49;;;;;;;10.25;5.47;;;;;;;;;;5054199;28;20053;-87
2021/09/08 10:08:18;;;;;;;9.27;5.28;;;;;;;;;;5035923;28;20040;-86
2021/09/08 10:10:45;;;;;;;6.65;4.75;;;;;;;;;;5020158;28;20115;-86
2021/09/08 10:13:26;;;;;;;8.25;4.95;;;;;;;;;;5068273;28;20021;-84
2021/09/08 10:15:53;;;;;;;5.68;4.88;;;;;;;;;;5056514;28;20028;-85
2021/09/08 10:18:26;;;;;;;13.55;5.50;;;;;;;;;;5055856;28;20476;-86
2021/09/08 10:20:53;;;;;;;6.78;5.15;;;;;;;;;;5076205;28;20081;-86
2021/09/08 10:23:19;;;;;;;7.18;5.75;;;;;;;;;;5057546;28;20103;-88
2021/09/08 10:25:48;;;;;;;8.75;5.00;;;;;;;;;;5037534;28;20021;-87
2021/09/08 10:28:15;;;;;;;6.90;4.93;;;;;;;;;;5039416;28;20021;-87
2021/09/08 10:30:42;;;;;;;9.30;5.30;;;;;;;;;;5037121;28;20063;-86
2021/09/08 10:33:08;;;;;;;13.07;5.47;;;;;;;;;;5036901;28;20045;-86
2021/09/08 10:35:38;;;;;;;8.00;5.28;;;;;;;;;;5036667;28;20029;-84
2021/09/08 10:38:09;;;;;;;7.15;5.75;;;;;;;;;;5054928;28;20027;-86
2021/09/08 10:40:35;;;;;;;8.40;5.35;;;;;;;;;;5061060;28;20035;-87
2021/09/08 10:43:01;;;;;;;7.53;5.00;;;31.00;60.10;;;;;;5052380;28;20028;-86
2021/09/08 10:45:28;;;;;;;8.80;5.57;;;32.60;57.10;;;;;;5055428;28;20119;-85
2021/09/08 10:47:56;;;;;;;8.48;5.68;;;33.20;54.20;;;;;;5061734;28;20040;-86
2021/09/08 10:50:51;;;;;;;10.38;5.13;;;33.70;54.30;;;;;;5054483;28;20029;-85
2021/09/08 10:53:20;;;;;;;8.73;5.50;;;34.20;55.00;;;;;;5027548;28;20029;-86
2021/09/08 10:55:47;;;;;;;8.48;5.40;;;34.40;53.60;;;;;;5065548;28;20074;-85
2021/09/08 10:58:13;;;;;;;10.40;6.00;;;33.60;52.80;;;;;;5029220;28;20116;-86
2021/09/08 11:00:40;;;;;;;6.70;5.53;;;34.00;53.50;;;;;;5061000;28;20123;-85
2021/09/08 11:03:23;;;;;;;9.80;5.70;;;34.20;52.90;;;;;;5058119;28;20138;-86
2021/09/08 11:05:57;;;;;;;10.77;5.80;;;34.60;52.80;;;;;;5062783;28;20031;-86
2021/09/08 11:08:28;;;;;;;8.02;5.93;;;34.10;52.70;;;;;;5061311;28;20032;-86
2021/09/08 11:11:12;;;;;;;9.43;5.55;;;34.40;52.30;;;;;;5046447;28;20025;-86
2021/09/08 11:13:39;;;;;;;8.98;5.55;;;33.90;52.80;;;;;;5061193;28;20025;-86
2021/09/08 11:16:40;;;;;;;9.35;5.53;;;33.70;52.80;;;;;;5057078;28;20374;-86
2021/09/08 11:19:07;;;;;;;7.30;4.90;;;33.40;54.40;;;;;;4955256;28;20038;-85
2021/09/08 11:21:33;;;;;;;9.95;5.15;;;34.00;54.80;;;;;;5022782;28;20124;-85
2021/09/08 11:24:02;;;;;;;9.07;5.35;;;34.60;53.20;;;;;;5063090;28;20024;-85
2021/09/08 11:26:31;;;;;;;7.63;5.40;;;35.10;53.00;;;;;;5041098;28;20037;-86
2021/09/08 11:29:12;;;;;;;8.18;5.97;;;35.00;51.70;;;;;;5046187;28;20028;-85
2021/09/08 11:31:48;;;;;;;6.93;5.40;;;34.50;51.80;;;;;;5060200;28;20031;-85
2021/09/08 11:34:21;;;;;;;6.00;5.03;;;34.70;52.70;;;;;;5043749;28;20333;-85
2021/09/08 11:36:48;;;;;;;7.93;5.20;;;35.10;52.70;;;;;;5055220;28;20078;-88
2021/09/08 11:39:16;;;;;;;6.72;5.25;;;34.90;52.80;;;;;;5048472;28;20024;-89
2021/09/08 11:42:01;;;;;;;8.52;5.22;;;35.40;52.50;;;;;;5066990;28;20021;-89
2021/09/08 11:44:27;;;;;;;6.85;5.30;;;34.30;52.40;;;;;;5078335;28;20031;-89
2021/09/08 11:46:54;;;;;;;6.68;5.22;;;34.40;53.40;;;;;;5053213;28;20024;-89
2021/09/08 11:49:20;;;;;;;8.38;5.15;;;36.40;55.40;;;;;;5046411;28;20021;-90
2021/09/08 11:51:46;;;;;;;8.57;5.40;;;34.70;54.90;;;;;;5069205;28;20025;-89
2021/09/08 11:54:21;;;;;;;7.63;5.30;;;34.70;54.90;;;;;;5038742;28;20422;-90
2021/09/08 11:56:54;;;;;;;7.32;5.35;;;34.70;51.50;;;;;;5038423;28;20334;-89
2021/09/08 11:59:28;;;;;;;8.80;5.65;;;34.70;52.40;;;;;;5037653;28;20020;-89
2021/09/08 12:01:54;;;;;;;10.60;5.60;;;34.90;52.80;;;;;;5038243;28;20551;-89
2021/09/08 12:04:23;;;;;;;8.63;5.15;;;34.90;53.70;;;;;;5040306;28;20040;-88
2021/09/08 12:07:18;;;;;;;10.30;5.47;;;34.80;53.80;;;;;;5079125;28;20473;-89
2021/09/08 12:10:04;;;;;;;8.23;5.43;;;34.90;51.50;;;;;;5087873;28;20142;-92
2021/09/08 12:12:30;;;;;;;5.63;4.72;;;36.00;53.20;;;;;;5058645;28;20410;-90
2021/09/08 12:14:55;;;;;;;8.88;5.20;;;35.50;53.10;;;;;;5078616;28;20028;-90
2021/09/08 12:17:26;;;;;;;7.43;5.60;;;35.50;53.60;;;;;;5056946;28;20020;-89
2021/09/08 12:20:00;;;;;;;8.57;4.80;;;35.60;50.70;;;;;;5058559;28;20029;-90
2021/09/08 12:22:28;;;;;;;7.50;5.15;;;36.00;50.40;;;;;;5059675;28;20028;-91
2021/09/08 12:24:56;;;;;;;9.48;4.88;;;;;;;;;;5059545;28;20029;-91
2021/09/08 12:27:25;;;;;;;9.30;5.10;;;;;;;;;;5040250;28;20029;-91
2021/09/08 12:29:52;;;;;;;11.50;5.25;;;;;;;;;;5038022;28;20115;-90
2021/09/08 12:32:18;;;;;;;7.15;4.97;;;;;;;;;;5038823;28;20024;-89
2021/09/08 12:34:46;;;;;;;5.95;4.93;;;;;;;;;;5038257;28;20114;-89
2021/09/08 12:37:18;;;;;;;8.05;5.22;;;;;;;;;;5038232;28;20029;-90
2021/09/08 12:39:48;;;;;;;10.23;5.03;;;;;;;;;;5037925;28;20029;-90
2021/09/08 12:42:43;;;;;;;8.75;4.95;;;;;;;;;;5039627;28;20099;-89
2021/09/08 12:45:10;;;;;;;6.25;4.47;;;;;;;;;;5071163;28;20035;-88
2021/09/08 12:47:56;;;;;;;6.55;4.70;;;;;;;;;;5079598;28;20034;-90
2021/09/08 12:50:22;;;;;;;7.88;4.85;;;;;;;;;;5058795;28;20047;-91
2021/09/08 12:52:52;;;;;;;7.03;5.07;;;;;;;;;;5057139;28;20021;-91
2021/09/08 12:55:22;;;;;;;9.02;5.20;;;;;;;;;;5055477;28;20020;-90
2021/09/08 12:57:49;;;;;;;8.45;5.28;;;;;;;;;;5072292;28;20004;-92
2021/09/08 13:00:16;;;;;;;7.40;4.85;;;;;;;;;;5089121;28;20025;-89
2021/09/08 13:02:43;;;;;;;7.38;4.65;;;;;;;;;;5065243;28;20408;-90
2021/09/08 13:05:10;;;;;;;9.63;5.03;;;;;;;;;;5061284;28;20021;-89
2021/09/08 13:07:36;;;;;;;7.53;4.85;;;;;;;;;;5044279;28;20021;-89
2021/09/08 13:10:03;;;;;;;5.03;4.18;;;;;;;;;;5081942;28;20478;-87
2021/09/08 13:12:29;;;;;;;6.97;4.53;;;;;;;;;;5062595;28;20024;-89
2021/09/08 13:14:55;;;;;;;5.97;4.80;;;;;;;;;;5062533;28;20024;-88
2021/09/08 13:17:21;;;;;;;5.32;4.28;;;;;;;;;;5066253;28;20048;-87
2021/09/08 13:19:47;;;;;;;6.10;4.68;;;35.80;51.40;;;;;;5063837;28;20032;-88
2021/09/08 13:22:13;;;;;;;7.60;4.22;;;;;;;;;;5073820;28;20024;-88
2021/09/08 13:24:39;;;;;;;5.85;4.60;;;;;;;;;;5077135;28;20020;-87
2021/09/08 13:27:05;;;;;;;6.35;4.82;;;;;;;;;;5048799;28;20029;-83
2021/09/08 13:29:31;;;;;;;4.95;4.20;;;;;;;;;;5039346;28;20029;-86
2021/09/08 13:31:57;;;;;;;5.68;4.65;;;;;;;;;;5021539;28;20474;-85
2021/09/08 13:34:24;;;;;;;6.60;4.75;;;;;;;;;;5036863;28;20039;-86
2021/09/08 13:36:50;;;;;;;7.35;4.43;;;;;;;;;;5054588;28;20481;-85
2021/09/08 13:39:16;;;;;;;8.57;4.40;;;;;;;;;;5054593;28;20025;-85
2021/09/08 13:41:42;;;;;;;7.57;4.20;;;;;;;;;;5037888;28;20031;-87
2021/09/08 13:44:08;;;;;;;5.10;3.78;;;;;;;;;;5059304;28;20036;-84
2021/09/08 13:46:34;;;;;;;5.55;4.30;;;;;;;;;;5057982;28;20035;-85
2021/09/08 13:49:01;;;;;;;5.75;4.20;;;;;;;;;;5042761;28;20033;-85
2021/09/08 13:51:27;;;;;;;5.13;4.07;;;;;;;;;;5065507;28;20036;-84
2021/09/08 13:53:53;;;;;;;6.32;4.30;;;;;;;;;;5034616;28;20040;-85
2021/09/08 13:56:19;;;;;;;6.95;4.32;;;;;;;;;;5035156;28;20070;-86
2021/09/08 13:58:47;;;;;;;6.03;4.07;;;;;;;;;;5064645;28;20020;-86
2021/09/08 14:01:14;;;;;;;8.20;4.57;;;;;;;;;;5041116;28;20119;-83
2021/09/08 14:03:40;;;;;;;7.00;4.32;;;;;;;;;;5042457;28;20051;-85
2021/09/08 14:06:06;;;;;;;6.45;4.45;;;;;;;;;;5059599;28;20488;-85
2021/09/08 14:08:33;;;;;;;5.82;4.22;;;;;;;;;;5058295;28;21807;-85
2021/09/08 14:10:59;;;;;;;8.20;4.30;;;;;;;;;;5037715;28;20074;-85